createdAt,value
2022-08-26T00:01:06.036Z,45.78
2022-08-26T00:03:34.024Z,42.53
2022-08-26T00:06:01.463Z,42.90
2022-08-26T00:08:29.982Z,41.67
2022-08-26T00:10:57.450Z,45.83
2022-08-26T00:13:27.414Z,43.35
2022-08-26T00:15:55.011Z,42.95
2022-08-26T00:18:23.782Z,41.55
2022-08-26T00:23:20.850Z,38.55
2022-08-26T00:28:19.284Z,37.47
2022-08-26T00:30:52.077Z,39.67
2022-08-26T00:33:20.411Z,35.55
2022-08-26T00:35:49.255Z,36.55
2022-08-26T00:38:19.196Z,37.58
2022-08-26T00:40:47.394Z,36.70
2022-08-26T00:43:15.666Z,39.45
2022-08-26T00:45:43.896Z,39.58
2022-08-26T00:48:12.322Z,34.97
2022-08-26T00:50:42.220Z,35.08
2022-08-26T00:53:24.196Z,35.45
2022-08-26T00:55:57.873Z,35.67
2022-08-26T00:58:26.012Z,32.83
2022-08-26T01:00:53.984Z,37.40
2022-08-26T01:03:24.453Z,32.58
2022-08-26T01:05:52.816Z,29.80
2022-08-26T01:08:23.302Z,32.28
2022-08-26T01:10:55.737Z,30.60
2022-08-26T01:13:23.982Z,34.33
2022-08-26T01:15:52.615Z,32.30
2022-08-26T01:18:21.184Z,28.83
2022-08-26T01:20:57.679Z,25.98
2022-08-26T01:23:27.484Z,28.77
2022-08-26T01:25:57.615Z,36.33
2022-08-26T01:28:28.797Z,30.20
2022-08-26T01:30:57.805Z,30.25
2022-08-26T01:33:27.901Z,29.13
2022-08-26T01:35:55.978Z,28.73
2022-08-26T01:38:23.711Z,30.75
2022-08-26T01:40:52.666Z,29.45
2022-08-26T01:43:24.214Z,32.05
2022-08-26T01:45:54.515Z,27.35
2022-08-26T01:48:24.230Z,25.90
2022-08-26T01:50:52.640Z,26.15
2022-08-26T01:53:21.496Z,31.95
2022-08-26T01:55:51.987Z,26.80
2022-08-26T01:58:22.425Z,28.50
2022-08-26T02:00:50.388Z,28.67
2022-08-26T02:03:19.020Z,25.77
2022-08-26T02:05:48.721Z,25.55
2022-08-26T02:08:24.513Z,26.85
2022-08-26T02:10:54.689Z,23.75
2022-08-26T02:13:24.017Z,27.08
2022-08-26T02:15:52.243Z,27.02
2022-08-26T02:18:20.039Z,29.27
2022-08-26T02:20:47.737Z,28.13
2022-08-26T02:23:19.300Z,25.85
2022-08-26T02:25:50.882Z,23.80
2022-08-26T02:28:19.758Z,23.70
2022-08-26T02:30:48.912Z,30.55
2022-08-26T02:33:16.403Z,27.17
2022-08-26T02:35:43.859Z,30.77
2022-08-26T02:38:11.435Z,19.95
2022-08-26T02:40:40.829Z,22.85
2022-08-26T02:43:08.863Z,23.90
2022-08-26T02:45:36.403Z,18.02
2022-08-26T02:48:09.148Z,21.20
2022-08-26T02:50:38.063Z,20.60
2022-08-26T02:53:07.278Z,16.33
2022-08-26T02:55:35.433Z,18.95
2022-08-26T02:58:03.669Z,18.77
2022-08-26T03:00:31.818Z,16.50
2022-08-26T03:02:59.766Z,19.13
2022-08-26T03:05:28.648Z,17.02
2022-08-26T03:07:56.143Z,16.30
2022-08-26T03:10:23.955Z,17.38
2022-08-26T03:12:53.560Z,14.48
2022-08-26T03:15:21.057Z,15.70
2022-08-26T03:17:49.196Z,13.98
2022-08-26T03:20:18.157Z,16.90
2022-08-26T03:22:47.308Z,16.15
2022-08-26T03:25:16.948Z,13.88
2022-08-26T03:27:44.857Z,10.85
2022-08-26T03:30:30.556Z,10.95
2022-08-26T03:32:58.444Z,11.85
2022-08-26T03:35:26.526Z,12.15
2022-08-26T03:37:55.486Z,12.55
2022-08-26T03:40:23.251Z,13.75
2022-08-26T03:42:51.013Z,12.45
2022-08-26T03:45:18.974Z,10.85
2022-08-26T03:47:47.148Z,11.30
2022-08-26T03:50:16.059Z,15.65
2022-08-26T03:52:44.172Z,8.90
2022-08-26T03:55:13.340Z,9.60
2022-08-26T03:57:41.093Z,11.13
2022-08-26T04:00:13.220Z,13.00
2022-08-26T04:02:40.756Z,8.40
2022-08-26T04:05:08.880Z,9.25
2022-08-26T04:07:36.644Z,8.88
2022-08-26T04:10:05.168Z,12.25
2022-08-26T04:12:33.962Z,11.35
2022-08-26T04:15:01.419Z,7.32
2022-08-26T04:17:30.391Z,11.35
2022-08-26T04:19:57.841Z,11.55
2022-08-26T04:22:25.345Z,12.20
2022-08-26T04:24:52.858Z,10.10
2022-08-26T04:27:20.733Z,8.90
2022-08-26T04:29:53.505Z,5.85
2022-08-26T04:32:22.637Z,12.52
2022-08-26T04:34:50.155Z,8.00
2022-08-26T04:37:18.589Z,8.70
2022-08-26T04:39:46.123Z,10.75
2022-08-26T04:42:17.919Z,6.78
2022-08-26T04:44:48.739Z,8.73
2022-08-26T04:47:16.199Z,6.82
2022-08-26T04:49:43.723Z,7.95
2022-08-26T04:52:11.802Z,6.03
2022-08-26T04:54:41.948Z,8.27
2022-08-26T04:57:09.739Z,8.32
2022-08-26T04:59:39.278Z,6.97
2022-08-26T05:02:08.539Z,7.95
2022-08-26T05:04:36.635Z,5.93
2022-08-26T05:07:05.817Z,7.32
2022-08-26T05:09:34.102Z,6.20
2022-08-26T05:12:01.663Z,7.28
2022-08-26T05:14:31.073Z,10.00
2022-08-26T05:16:58.674Z,5.82
2022-08-26T05:19:27.958Z,6.88
2022-08-26T05:21:55.533Z,8.10
2022-08-26T05:24:23.350Z,8.88
2022-08-26T05:26:50.954Z,5.88
2022-08-26T05:29:18.598Z,7.13
2022-08-26T05:31:47.373Z,7.05
2022-08-26T05:34:15.120Z,7.20
2022-08-26T05:36:44.333Z,6.80
2022-08-26T05:39:11.850Z,7.28
2022-08-26T05:41:40.891Z,10.10
2022-08-26T05:44:09.320Z,6.18
2022-08-26T05:46:37.315Z,7.43
2022-08-26T05:49:05.633Z,5.13
2022-08-26T05:51:33.288Z,10.68
2022-08-26T05:54:03.552Z,4.82
2022-08-26T05:56:31.359Z,6.28
2022-08-26T05:58:59.656Z,8.13
2022-08-26T06:01:28.253Z,7.28
2022-08-26T06:03:57.463Z,6.22
2022-08-26T06:06:29.421Z,6.65
2022-08-26T06:08:59.071Z,8.30
2022-08-26T06:11:29.043Z,3.90
2022-08-26T06:14:03.089Z,9.77
2022-08-26T06:16:32.424Z,6.70
2022-08-26T06:19:02.572Z,5.47
2022-08-26T06:21:31.035Z,6.93
2022-08-26T06:24:16.919Z,3.97
2022-08-26T06:26:50.427Z,10.35
2022-08-26T06:29:24.046Z,7.85
2022-08-26T06:31:52.447Z,7.28
2022-08-26T06:34:19.959Z,10.85
2022-08-26T06:36:49.225Z,9.25
2022-08-26T06:39:19.955Z,6.35
2022-08-26T06:41:49.373Z,10.10
2022-08-26T06:44:17.100Z,6.28
2022-08-26T06:46:45.573Z,8.35
2022-08-26T06:49:13.423Z,7.47
2022-08-26T06:51:44.739Z,7.18
2022-08-26T06:54:12.211Z,14.18
2022-08-26T06:56:40.949Z,9.65
2022-08-26T06:59:10.464Z,7.65
2022-08-26T07:01:38.789Z,8.57
2022-08-26T07:04:11.146Z,8.95
2022-08-26T07:06:40.376Z,7.95
2022-08-26T07:09:09.818Z,8.60
2022-08-26T07:11:38.605Z,7.68
2022-08-26T07:14:06.241Z,9.02
2022-08-26T07:16:35.793Z,9.70
2022-08-26T07:19:10.847Z,7.75
2022-08-26T07:21:40.297Z,6.75
2022-08-26T07:24:08.208Z,7.70
2022-08-26T07:26:35.691Z,8.15
2022-08-26T07:29:03.572Z,7.05
2022-08-26T07:31:39.160Z,7.82
2022-08-26T07:34:09.264Z,10.30
2022-08-26T07:36:37.197Z,5.22
2022-08-26T07:39:04.747Z,9.60
2022-08-26T07:41:32.480Z,5.95
2022-08-26T07:44:00.041Z,8.43
2022-08-26T07:46:30.229Z,7.22
2022-08-26T07:48:58.423Z,9.10
2022-08-26T07:51:27.942Z,6.35
2022-08-26T07:53:55.961Z,6.25
2022-08-26T07:56:23.934Z,16.48
2022-08-26T07:58:52.866Z,6.97
2022-08-26T08:01:20.502Z,8.85
2022-08-26T08:03:48.111Z,8.32
2022-08-26T08:06:18.119Z,8.97
2022-08-26T08:08:47.149Z,10.13
2022-08-26T08:11:14.909Z,10.88
2022-08-26T08:13:42.388Z,3.08
2022-08-26T08:16:12.774Z,6.95
2022-08-26T08:18:40.394Z,17.58
2022-08-26T08:21:23.779Z,7.80
2022-08-26T08:23:53.331Z,11.75
2022-08-26T08:26:21.211Z,16.10
2022-08-26T08:28:48.813Z,11.52
2022-08-26T08:31:38.741Z,5.47
2022-08-26T08:34:08.061Z,25.73
2022-08-26T08:36:35.901Z,14.68
2022-08-26T08:39:05.123Z,11.43
2022-08-26T08:41:43.514Z,16.40
2022-08-26T08:44:14.721Z,25.73
2022-08-26T08:46:43.614Z,7.68
2022-08-26T08:49:11.886Z,8.02
2022-08-26T08:51:43.556Z,8.10
2022-08-26T08:54:12.836Z,13.32
2022-08-26T08:56:42.636Z,4.10
2022-08-26T08:59:14.525Z,22.67
2022-08-26T09:01:52.543Z,3.45
2022-08-26T09:04:30.734Z,5.97
2022-08-26T09:07:00.216Z,7.43
2022-08-26T09:09:33.783Z,9.93
2022-08-26T09:12:01.851Z,17.10
2022-08-26T09:14:29.524Z,9.70
2022-08-26T09:17:00.779Z,3.72
2022-08-26T09:19:33.606Z,4.78
2022-08-26T09:22:03.676Z,4.57
2022-08-26T09:24:41.284Z,7.00
2022-08-26T09:27:11.462Z,3.72
2022-08-26T09:29:42.413Z,12.95
2022-08-26T09:32:19.238Z,9.70
2022-08-26T09:34:55.034Z,4.30
2022-08-26T09:37:35.419Z,8.27
2022-08-26T09:40:14.982Z,4.97
2022-08-26T09:42:42.473Z,7.22
2022-08-26T09:45:12.790Z,6.40
2022-08-26T09:47:42.340Z,13.80
2022-08-26T09:50:19.540Z,5.40
2022-08-26T09:52:47.864Z,9.70
2022-08-26T09:55:21.781Z,5.47
2022-08-26T09:57:51.153Z,11.43
2022-08-26T10:00:30.316Z,5.28
2022-08-26T10:02:58.833Z,7.32
2022-08-26T10:05:30.820Z,3.42
2022-08-26T10:07:59.588Z,4.85
2022-08-26T10:10:32.271Z,6.50
2022-08-26T10:13:04.050Z,3.13
2022-08-26T10:15:36.777Z,6.88
2022-08-26T10:18:10.734Z,3.72
2022-08-26T10:20:42.713Z,4.57
2022-08-26T10:23:14.803Z,3.28
2022-08-26T10:25:47.562Z,4.68
2022-08-26T10:28:19.957Z,2.67
2022-08-26T10:30:51.261Z,5.70
2022-08-26T10:33:19.432Z,4.15
2022-08-26T10:35:51.091Z,6.60
2022-08-26T10:38:20.703Z,5.55
2022-08-26T10:40:55.049Z,9.60
2022-08-26T10:43:25.717Z,6.10
2022-08-26T10:45:54.517Z,11.02
2022-08-26T10:48:24.425Z,5.57
2022-08-26T10:50:52.160Z,2.88
2022-08-26T10:53:25.096Z,6.38
2022-08-26T10:55:58.145Z,5.15
2022-08-26T10:58:32.876Z,6.85
2022-08-26T11:01:23.430Z,7.97
2022-08-26T11:03:54.821Z,4.88
2022-08-26T11:06:26.079Z,7.80
2022-08-26T11:08:53.999Z,4.13
2022-08-26T11:11:39.344Z,8.45
2022-08-26T11:14:08.650Z,5.32
2022-08-26T11:16:42.988Z,3.83
2022-08-26T11:19:12.334Z,5.65
2022-08-26T11:21:54.686Z,17.58
2022-08-26T11:24:40.957Z,5.18
2022-08-26T11:27:10.662Z,4.43
2022-08-26T11:29:59.397Z,3.45
2022-08-26T11:32:28.063Z,4.85
2022-08-26T11:34:57.774Z,4.05
2022-08-26T11:37:30.709Z,4.43
2022-08-26T11:40:01.648Z,3.42
2022-08-26T11:42:32.900Z,8.02
2022-08-26T11:45:05.569Z,6.30
2022-08-26T11:47:33.816Z,6.88
2022-08-26T11:50:15.173Z,3.72
2022-08-26T11:52:51.273Z,7.07
2022-08-26T11:55:19.144Z,6.90
2022-08-26T11:57:48.478Z,4.60
2022-08-26T12:00:22.576Z,2.80
2022-08-26T12:02:50.604Z,3.10
2022-08-26T12:05:22.870Z,5.75
2022-08-26T12:07:53.119Z,4.72
2022-08-26T12:10:29.564Z,11.15
2022-08-26T12:12:57.951Z,2.22
2022-08-26T12:15:27.857Z,4.38
2022-08-26T12:17:57.920Z,2.65
2022-08-26T12:20:45.872Z,4.22
2022-08-26T12:23:23.798Z,7.45
2022-08-26T12:25:51.755Z,8.13
2022-08-26T12:28:21.465Z,5.82
2022-08-26T12:31:02.166Z,12.70
2022-08-26T12:33:30.309Z,5.13
2022-08-26T12:35:59.312Z,4.30
2022-08-26T12:38:27.803Z,6.50
2022-08-26T12:40:55.896Z,10.70
2022-08-26T12:43:43.127Z,6.43
2022-08-26T12:46:13.602Z,8.85
2022-08-26T12:48:42.561Z,4.70
2022-08-26T12:51:16.846Z,6.03
2022-08-26T12:53:44.559Z,41.53
2022-08-26T12:56:25.797Z,3.80
2022-08-26T12:59:04.132Z,6.82
2022-08-26T13:01:38.927Z,2.70
2022-08-26T13:04:07.534Z,8.10
2022-08-26T13:06:35.259Z,5.32
2022-08-26T13:09:05.564Z,4.43
2022-08-26T13:11:34.399Z,7.60
2022-08-26T13:14:02.641Z,3.28
2022-08-26T13:16:34.934Z,3.88
2022-08-26T13:19:05.110Z,5.68
2022-08-26T13:21:37.433Z,2.72
2022-08-26T13:24:06.658Z,2.95
2022-08-26T13:26:35.052Z,1.83
2022-08-26T13:29:04.515Z,9.32
2022-08-26T13:31:34.511Z,7.35
2022-08-26T13:34:02.578Z,4.07
2022-08-26T13:36:31.373Z,3.33
2022-08-26T13:38:58.917Z,6.65
2022-08-26T13:41:29.624Z,3.90
2022-08-26T13:46:24.938Z,5.78
2022-08-26T13:48:53.393Z,3.92
2022-08-26T13:51:22.410Z,3.90
2022-08-26T13:53:51.500Z,4.85
2022-08-26T13:56:19.718Z,4.47
2022-08-26T13:58:47.645Z,4.70
2022-08-26T14:01:17.416Z,5.95
2022-08-26T14:03:45.022Z,3.20
2022-08-26T14:06:12.828Z,4.10
2022-08-26T14:08:40.722Z,3.97
2022-08-26T14:11:09.752Z,4.72
2022-08-26T14:13:37.302Z,4.88
2022-08-26T14:16:05.905Z,11.55
2022-08-26T14:18:37.333Z,3.35
2022-08-26T14:21:08.244Z,13.23
2022-08-26T14:23:35.693Z,4.47
2022-08-26T14:26:03.846Z,4.78
2022-08-26T14:28:32.628Z,4.72
2022-08-26T14:31:00.182Z,2.50
2022-08-26T14:33:29.741Z,12.25
2022-08-26T14:36:17.451Z,3.38
2022-08-26T14:38:45.360Z,3.10
2022-08-26T14:41:13.734Z,5.63
2022-08-26T14:43:45.629Z,4.63
2022-08-26T14:46:14.861Z,5.07
2022-08-26T14:48:42.486Z,6.05
2022-08-26T14:51:09.924Z,2.10
2022-08-26T14:53:54.919Z,3.42
2022-08-26T14:56:22.398Z,3.38
2022-08-26T14:58:51.173Z,3.53
2022-08-26T15:01:18.654Z,1.85
2022-08-26T15:03:46.141Z,5.40
2022-08-26T15:06:14.581Z,2.50
2022-08-26T15:08:42.018Z,1.45
2022-08-26T15:11:10.250Z,3.80
2022-08-26T15:13:37.878Z,2.20
2022-08-26T15:16:07.075Z,1.58
2022-08-26T15:18:34.563Z,3.28
2022-08-26T15:21:03.459Z,3.05
2022-08-26T15:23:31.017Z,1.95
2022-08-26T15:25:58.936Z,1.60
2022-08-26T15:28:26.398Z,1.80
2022-08-26T15:30:53.934Z,1.35
2022-08-26T15:33:22.967Z,3.40
2022-08-26T15:35:50.514Z,2.00
2022-08-26T15:38:17.995Z,3.22
2022-08-26T15:40:45.499Z,2.10
2022-08-26T15:43:25.882Z,3.90
2022-08-26T15:45:55.975Z,6.18
2022-08-26T15:48:25.335Z,3.42
2022-08-26T15:50:54.043Z,4.00
2022-08-26T15:53:21.916Z,5.03
2022-08-26T15:55:49.487Z,6.22
2022-08-26T15:58:17.362Z,6.68
2022-08-26T16:00:44.818Z,7.35
2022-08-26T16:03:12.396Z,6.93
2022-08-26T16:05:43.313Z,6.97
2022-08-26T16:08:11.633Z,6.25
2022-08-26T16:10:40.564Z,5.95
2022-08-26T16:13:10.362Z,3.58
2022-08-26T16:15:40.563Z,8.60
2022-08-26T16:18:09.137Z,6.82
2022-08-26T16:20:37.561Z,3.85
2022-08-26T16:23:07.253Z,5.75
2022-08-26T16:25:35.127Z,6.70
2022-08-26T16:28:02.700Z,3.72
2022-08-26T16:30:38.839Z,4.80
2022-08-26T16:33:06.322Z,3.25
2022-08-26T16:35:33.852Z,5.70
2022-08-26T16:38:01.292Z,5.47
2022-08-26T16:40:30.257Z,5.05
2022-08-26T16:42:57.832Z,2.67
2022-08-26T16:45:25.362Z,3.90
2022-08-26T16:47:53.225Z,5.47
2022-08-26T16:50:21.182Z,4.18
2022-08-26T16:52:51.482Z,3.63
2022-08-26T16:55:23.638Z,8.40
2022-08-26T16:57:52.578Z,6.43
2022-08-26T17:00:24.431Z,3.38
2022-08-26T17:02:51.974Z,2.25
2022-08-26T17:05:20.367Z,3.17
2022-08-26T17:07:47.848Z,5.38
2022-08-26T17:10:15.374Z,2.80
2022-08-26T17:12:42.858Z,3.70
2022-08-26T17:15:13.087Z,4.22
2022-08-26T17:17:41.000Z,2.97
2022-08-26T17:20:10.466Z,3.83
2022-08-26T17:22:39.298Z,3.30
2022-08-26T17:25:10.882Z,4.88
2022-08-26T17:27:38.338Z,3.25
2022-08-26T17:30:06.451Z,6.22
2022-08-26T17:32:35.331Z,6.53
2022-08-26T17:35:03.497Z,3.30
2022-08-26T17:37:31.021Z,2.58
2022-08-26T17:39:58.629Z,3.22
2022-08-26T17:42:31.631Z,4.20
2022-08-26T17:44:59.474Z,4.72
2022-08-26T17:47:26.970Z,4.53
2022-08-26T17:49:55.788Z,6.57
2022-08-26T17:52:23.319Z,6.03
2022-08-26T17:54:52.599Z,5.38
2022-08-26T17:57:20.081Z,4.18
2022-08-26T17:59:48.663Z,3.42
2022-08-26T18:02:16.223Z,5.25
2022-08-26T18:04:43.809Z,6.55
2022-08-26T18:07:12.682Z,3.10
2022-08-26T18:09:40.194Z,4.38
2022-08-26T18:12:08.061Z,4.07
2022-08-26T18:14:35.867Z,7.88
2022-08-26T18:17:03.779Z,3.80
2022-08-26T18:19:31.266Z,3.63
2022-08-26T18:21:59.347Z,1.25
2022-08-26T18:24:30.246Z,3.67
2022-08-26T18:26:57.868Z,4.88
2022-08-26T18:29:25.383Z,3.75
2022-08-26T18:31:53.069Z,3.30
2022-08-26T18:34:20.954Z,5.50
2022-08-26T18:36:48.930Z,5.38
2022-08-26T18:39:19.081Z,2.00
2022-08-26T18:41:52.295Z,2.88
2022-08-26T18:44:21.237Z,6.30
2022-08-26T18:46:49.925Z,6.13
2022-08-26T18:49:19.377Z,1.88
2022-08-26T18:51:47.588Z,4.05
2022-08-26T18:54:15.158Z,4.57
2022-08-26T18:56:43.728Z,5.30
2022-08-26T18:59:13.517Z,5.45
2022-08-26T19:01:42.211Z,4.57
2022-08-26T19:04:14.717Z,4.68
2022-08-26T19:06:46.484Z,4.10
2022-08-26T19:09:14.598Z,4.05
2022-08-26T19:11:43.143Z,3.90
2022-08-26T19:14:14.061Z,7.38
2022-08-26T19:16:42.028Z,4.45
2022-08-26T19:19:09.528Z,7.45
2022-08-26T19:21:37.721Z,4.38
2022-08-26T19:24:07.114Z,5.55
2022-08-26T19:26:34.905Z,6.82
2022-08-26T19:29:02.516Z,7.47
2022-08-26T19:31:31.323Z,6.25
2022-08-26T19:33:59.042Z,3.83
2022-08-26T19:36:27.164Z,2.72
2022-08-26T19:38:55.777Z,3.50
2022-08-26T19:41:29.429Z,3.70
2022-08-26T19:44:05.713Z,7.10
2022-08-26T19:46:35.891Z,5.63
2022-08-26T19:49:03.857Z,6.35
2022-08-26T19:51:32.784Z,9.65
2022-08-26T19:54:01.060Z,6.75
2022-08-26T19:56:29.120Z,7.10
2022-08-26T19:58:56.954Z,3.50
2022-08-26T20:01:25.075Z,7.47
2022-08-26T20:06:26.323Z,5.10
2022-08-26T20:08:53.882Z,4.72
2022-08-26T20:11:23.243Z,4.72
2022-08-26T20:13:50.781Z,5.00
2022-08-26T20:16:18.706Z,5.50
2022-08-26T20:19:04.076Z,3.50
2022-08-26T20:21:35.537Z,3.28
2022-08-26T20:24:04.123Z,5.57
2022-08-26T20:26:32.518Z,4.65
2022-08-26T20:29:00.081Z,4.00
2022-08-26T20:31:28.093Z,6.47
2022-08-26T20:33:55.621Z,5.18
2022-08-26T20:36:24.161Z,4.15
2022-08-26T20:38:53.094Z,7.97
2022-08-26T20:41:20.621Z,6.25
2022-08-26T20:43:48.313Z,6.03
2022-08-26T20:46:18.076Z,4.82
2022-08-26T20:48:47.014Z,5.00
2022-08-26T20:51:14.553Z,7.15
2022-08-26T20:53:42.483Z,3.72
2022-08-26T20:56:12.577Z,4.18
2022-08-26T20:58:40.796Z,4.97
2022-08-26T21:01:08.768Z,5.60
2022-08-26T21:03:36.748Z,6.28
2022-08-26T21:06:04.848Z,5.20
2022-08-26T21:08:33.333Z,8.55
2022-08-26T21:11:01.994Z,5.25
2022-08-26T21:13:48.246Z,5.28
2022-08-26T21:16:20.699Z,3.13
2022-08-26T21:18:48.493Z,2.30
2022-08-26T21:21:15.918Z,3.67
2022-08-26T21:23:43.356Z,3.25
2022-08-26T21:26:11.991Z,5.55
2022-08-26T21:28:41.585Z,5.30
2022-08-26T21:31:10.181Z,4.70
2022-08-26T21:33:37.933Z,3.75
2022-08-26T21:36:06.047Z,5.18
2022-08-26T21:38:34.058Z,5.45
2022-08-26T21:41:02.388Z,4.00
2022-08-26T21:43:35.397Z,7.07
2022-08-26T21:46:11.256Z,3.67
2022-08-26T21:48:39.561Z,3.55
2022-08-26T21:51:07.459Z,6.53
2022-08-26T21:53:35.463Z,3.00
2022-08-26T21:56:04.826Z,3.63
2022-08-26T21:58:32.328Z,6.70
2022-08-26T22:00:59.809Z,2.58
2022-08-26T22:03:28.663Z,2.75
2022-08-26T22:06:01.261Z,5.75
2022-08-26T22:08:29.540Z,4.43
2022-08-26T22:10:57.687Z,4.75
2022-08-26T22:13:28.773Z,6.25
2022-08-26T22:18:25.297Z,4.55
2022-08-26T22:20:55.318Z,2.90
2022-08-26T22:23:23.130Z,5.82
2022-08-26T22:25:50.726Z,3.38
2022-08-26T22:28:18.458Z,5.97
2022-08-26T22:30:46.001Z,2.05
2022-08-26T22:33:13.612Z,6.32
2022-08-26T22:35:41.735Z,9.65
2022-08-26T22:38:10.737Z,6.95
2022-08-26T22:40:38.925Z,4.80
2022-08-26T22:43:06.377Z,4.43
2022-08-26T22:45:34.269Z,4.50
2022-08-26T22:48:04.551Z,5.45
2022-08-26T22:50:32.104Z,3.75
2022-08-26T22:52:59.566Z,7.28
2022-08-26T22:55:28.347Z,3.80
2022-08-26T22:57:55.825Z,3.78
2022-08-26T23:00:32.080Z,6.03
2022-08-26T23:03:00.374Z,4.32
2022-08-26T23:05:28.216Z,5.00
2022-08-26T23:07:56.575Z,5.07
2022-08-26T23:10:24.423Z,5.45
2022-08-26T23:12:53.606Z,3.15
2022-08-26T23:15:21.756Z,5.43
2022-08-26T23:17:57.047Z,5.15
2022-08-26T23:20:27.183Z,6.63
2022-08-26T23:22:54.839Z,3.88
2022-08-26T23:25:22.546Z,8.18
2022-08-26T23:27:53.409Z,7.05
2022-08-26T23:30:22.200Z,5.60
2022-08-26T23:32:49.932Z,3.00
2022-08-26T23:35:20.041Z,4.50
2022-08-26T23:37:50.961Z,5.05
2022-08-26T23:40:25.301Z,4.82
2022-08-26T23:42:54.692Z,4.55
2022-08-26T23:45:22.496Z,3.63
2022-08-26T23:47:51.237Z,5.57
2022-08-26T23:50:19.263Z,4.32
2022-08-26T23:53:04.816Z,5.50
2022-08-26T23:55:34.688Z,4.25
2022-08-26T23:58:03.546Z,7.82
